Castle Rock, CO (80108)

4:50 PM MDT on April 01, 2015 (GMT -0600)
The Meadows - Morningview Southeast | | Change Station
CLOSE
Current Station
Personal Weather Station
Location: Castle Rock, CO
Elevation: 6417 ft
Nearby Weather Stations

Elev 6417 ft 39.38 °N, 104.90 °W | Updated 9 minutes ago

Overcast
Overcast
61.5 °F
Feels Like 61.5 °F
N
8.3
Wind Variable Wind from North

Today
High -- | Low -- °F
--% Chance of Precip.
Yesterday
High -- | Low -- °F
Precip. -- in
6:44 AM 7:23 PM
Waxing Gibbous, 94% visible
Pressure 29.58 in
Visibility 10.0 miles
Clouds Few 9000 ft
Scattered Clouds 12000 ft
Scattered Clouds 14000 ft
Mostly Cloudy 22000 ft
Dew Point 24 °F
Humidity 24%
Rainfall 0.00 in
Snow Depth Not available.
UV 3 out of 12
Pollen 11.10 out of 12
Air Quality Not available.
Flu Activity Not available.
METAR KAPA 012153Z 36011KT 10SM FEW090 SCT120 SCT140 BKN220 18/M06 A2972 RMK AO2 SLP015 VIRGA ALQDS T01781056

More Conditions Fewer Conditions

Pressure 29.58 in
Visibility 10.0 miles
Clouds Few 9000 ft
Scattered Clouds 12000 ft
Scattered Clouds 14000 ft
Mostly Cloudy 22000 ft
Dew Point 24 °F
Humidity 24%
Rainfall 0.00 in
Snow Depth Not available.
UV 3 out of 12
Pollen 11.10 out of 12
Air Quality Not available.
Flu Activity Not available.
METAR KAPA 012153Z 36011KT 10SM FEW090 SCT120 SCT140 BKN220 18/M06 A2972 RMK AO2 SLP015 VIRGA ALQDS T01781056

More Conditions Fewer Conditions

Nowcast | as of 4:17 PM MDT on April 1, 2015

Scattered light rain showers and isolated thunderstorms will occur over Larimer...Boulder and northern and western Weld counties through late afternoon. The storms will produce gusty winds to 40 mph along with some cloud to ground lightning...but limited rainfall. The showers will continue to develop to the south and east through 6 PM.

×

10-Day Weather Forecast

Almanac

Astronomy

Apr. 01, 2015 Rise Set
Actual Time
Civil Twilight
Nautical Twilight
Astronomical Twilight
Moon
Length of Visible Light
Length of Day
Tomorrow will be .
, % of the Moon is Illuminated

Today's Extremes

State Highs State Lows

Community

WunderPhotos

Upload Photos

1,810,096 photos uploaded!

WunderBlogs® & News

Nearby

Air Quality

  Air Quality AQ Index Pollutant
Not available.

Snow Depth

Station Depth Elevation

Earthquake Activity

City Distance Mag. Time & Date
Minimum magnitude displayed is 2.5.

Coastal Water Temperatures

Place Temperature

Stations

Nearby Weather Stations

Station Location Temp. Windchill Dew Point Humidity Wind Precip. Elev Updated Type